createdAt,value
2022-10-02T00:01:47.353Z,99701.84
2022-10-02T00:04:22.462Z,99699.63
2022-10-02T00:06:50.950Z,99703.44
2022-10-02T00:09:34.177Z,99708.66
2022-10-02T00:12:02.041Z,99701.22
2022-10-02T00:14:35.464Z,99697.66
2022-10-02T00:17:03.734Z,99705.31
2022-10-02T00:19:30.716Z,99712.47
2022-10-02T00:22:35.003Z,99717.13
2022-10-02T00:25:14.024Z,99727.28
2022-10-02T00:27:51.170Z,99722.63
2022-10-02T00:30:18.753Z,99733.88
2022-10-02T00:33:07.305Z,99733.28
2022-10-02T00:35:52.822Z,99735.47
2022-10-02T00:38:40.105Z,99742.06
2022-10-02T00:41:31.762Z,99748.06
2022-10-02T00:44:27.622Z,99745.31
2022-10-02T00:47:03.052Z,99753.00
2022-10-02T00:50:03.762Z,99753.81
2022-10-02T00:53:04.817Z,99756.78
2022-10-02T00:55:48.332Z,99762.28
2022-10-02T00:58:36.702Z,99766.13
2022-10-02T01:01:11.920Z,99767.78
2022-10-02T01:03:44.887Z,99771.13
2022-10-02T01:06:12.256Z,99779.09
2022-10-02T01:08:39.478Z,99777.16
2022-10-02T01:11:07.742Z,99774.69
2022-10-02T01:13:35.856Z,99775.78
2022-10-02T01:16:03.398Z,99782.38
2022-10-02T01:18:32.027Z,99788.09
2022-10-02T01:21:08.730Z,99790.28
2022-10-02T01:23:43.224Z,99786.13
2022-10-02T01:26:11.564Z,99785.78
2022-10-02T01:28:38.548Z,99788.53
2022-10-02T01:31:10.266Z,99799.78
2022-10-02T01:33:41.433Z,99801.13
2022-10-02T01:36:13.705Z,99794.75
2022-10-02T01:38:41.961Z,99800.00
2022-10-02T01:41:12.363Z,99806.53
2022-10-02T01:43:51.972Z,99808.22
2022-10-02T01:46:50.273Z,99808.13
2022-10-02T01:49:26.193Z,99801.00
2022-10-02T01:52:08.248Z,99807.31
2022-10-02T01:54:46.747Z,99810.38
2022-10-02T01:57:27.116Z,99805.47
2022-10-02T02:00:16.039Z,99801.66
2022-10-02T02:03:12.394Z,99798.31
2022-10-02T02:05:50.822Z,99807.63
2022-10-02T02:08:57.411Z,99814.78
2022-10-02T02:11:26.683Z,99818.13
2022-10-02T02:14:16.811Z,99824.94
2022-10-02T02:16:52.743Z,99832.94
2022-10-02T02:19:29.736Z,99830.75
2022-10-02T02:22:02.266Z,99829.66
2022-10-02T02:24:53.102Z,99837.38
2022-10-02T02:27:25.588Z,99834.91
2022-10-02T02:29:57.918Z,99837.38
2022-10-02T02:32:30.603Z,99840.13
2022-10-02T02:35:05.951Z,99834.91
2022-10-02T02:37:37.144Z,99844.19
2022-10-02T02:40:12.718Z,99834.06
2022-10-02T02:42:48.296Z,99841.72
2022-10-02T02:45:17.969Z,99834.06
2022-10-02T02:47:54.090Z,99832.41
2022-10-02T02:50:20.894Z,99844.47
2022-10-02T02:52:56.973Z,99851.56
2022-10-02T02:55:34.517Z,99846.31
2022-10-02T02:58:22.769Z,99840.31
2022-10-02T03:00:50.963Z,99842.56
2022-10-02T03:03:18.265Z,99847.22
2022-10-02T03:05:50.014Z,99843.16
2022-10-02T03:08:28.842Z,99841.47
2022-10-02T03:11:17.608Z,99852.44
2022-10-02T03:14:09.893Z,99859.78
2022-10-02T03:17:09.193Z,99858.69
2022-10-02T03:19:51.199Z,99859.53
2022-10-02T03:22:30.364Z,99860.38
2022-10-02T03:24:57.088Z,99852.91
2022-10-02T03:27:35.105Z,99853.13
2022-10-02T03:30:12.944Z,99854.22
2022-10-02T03:32:42.251Z,99864.06
2022-10-02T03:35:14.190Z,99871.19
2022-10-02T03:37:48.504Z,99874.19
2022-10-02T03:40:15.315Z,99877.69
2022-10-02T03:42:42.278Z,99872.16
2022-10-02T03:45:09.360Z,99870.22
2022-10-02T03:47:35.946Z,99872.97
2022-10-02T03:50:02.637Z,99875.44
2022-10-02T03:52:32.539Z,99883.94
2022-10-02T03:55:03.948Z,99888.69
2022-10-02T03:57:34.175Z,99887.84
2022-10-02T04:00:02.859Z,99896.41
2022-10-02T04:02:35.477Z,99889.84
2022-10-02T04:05:27.752Z,99896.16
2022-10-02T04:08:09.779Z,99898.41
2022-10-02T04:10:36.952Z,99904.47
2022-10-02T04:13:21.694Z,99901.22
2022-10-02T04:16:01.370Z,99908.94
2022-10-02T04:18:59.205Z,99911.44
2022-10-02T04:21:49.238Z,99910.00
2022-10-02T04:24:47.677Z,99918.84
2022-10-02T04:27:35.219Z,99921.31
2022-10-02T04:30:06.973Z,99921.31
2022-10-02T04:32:36.855Z,99922.97
2022-10-02T04:35:21.720Z,99920.50
2022-10-02T04:37:56.166Z,99921.31
2022-10-02T04:40:43.742Z,99921.31
2022-10-02T04:43:32.296Z,99929.56
2022-10-02T04:46:20.667Z,99941.38
2022-10-02T04:49:05.826Z,99926.56
2022-10-02T04:52:09.739Z,99922.97
2022-10-02T04:54:45.606Z,99929.00
2022-10-02T04:57:38.554Z,99929.22
2022-10-02T05:00:23.172Z,99948.22
2022-10-02T05:03:01.632Z,99963.00
2022-10-02T05:05:54.380Z,99964.97
2022-10-02T05:08:49.770Z,99975.97
2022-10-02T05:11:26.594Z,99972.91
2022-10-02T05:14:08.525Z,99970.06
2022-10-02T05:16:47.405Z,99981.03
2022-10-02T05:19:27.620Z,99975.47
2022-10-02T05:22:05.768Z,99978.81
2022-10-02T05:24:38.293Z,99974.16
2022-10-02T05:27:33.153Z,99974.41
2022-10-02T05:30:14.811Z,99978.81
2022-10-02T05:32:45.768Z,99989.81
2022-10-02T05:35:31.983Z,99995.28
2022-10-02T05:38:24.037Z,100007.94
2022-10-02T05:41:08.843Z,100006.59
2022-10-02T05:44:07.410Z,100003.59
2022-10-02T05:47:18.304Z,100002.94
2022-10-02T05:49:51.871Z,100008.41
2022-10-02T05:52:45.888Z,100015.00
2022-10-02T05:55:41.569Z,100008.94
2022-10-02T05:58:27.698Z,100030.28
2022-10-02T06:00:59.143Z,100023.47
2022-10-02T06:03:34.702Z,100015.25
2022-10-02T06:06:17.893Z,100022.88
2022-10-02T06:08:58.568Z,100033.56
2022-10-02T06:11:36.124Z,100034.88
2022-10-02T06:14:07.047Z,100036.53
2022-10-02T06:16:40.756Z,100037.88
2022-10-02T06:19:23.085Z,100058.66
2022-10-02T06:21:53.755Z,100056.13
2022-10-02T06:24:53.508Z,100060.78
2022-10-02T06:27:39.147Z,100065.72
2022-10-02T06:30:10.730Z,100063.22
2022-10-02T06:33:00.269Z,100068.84
2022-10-02T06:35:38.775Z,100073.75
2022-10-02T06:38:35.902Z,100071.75
2022-10-02T06:41:31.554Z,100073.91
2022-10-02T06:44:21.255Z,100077.72
2022-10-02T06:47:00.856Z,100079.63
2022-10-02T06:50:15.096Z,100077.56
2022-10-02T06:53:00.220Z,100084.97
2022-10-02T06:59:38.739Z,100117.22
2022-10-02T07:02:39.030Z,100113.66
2022-10-02T07:05:36.486Z,100110.34
2022-10-02T07:08:34.284Z,100121.31
2022-10-02T07:11:09.531Z,100122.16
2022-10-02T07:13:49.414Z,100126.53
2022-10-02T07:16:24.959Z,100127.97
2022-10-02T07:19:33.238Z,100132.63
2022-10-02T07:22:44.578Z,100135.69
2022-10-02T07:26:01.164Z,100153.94
2022-10-02T07:28:43.668Z,100162.63
2022-10-02T07:32:11.128Z,100174.03
2022-10-02T07:34:53.962Z,100165.97
2022-10-02T07:37:41.424Z,100171.31
2022-10-02T07:44:10.201Z,100179.50
2022-10-02T07:47:09.368Z,100184.25
2022-10-02T07:49:56.977Z,100196.97
2022-10-02T07:52:51.151Z,100196.47
2022-10-02T07:55:21.282Z,100205.63
2022-10-02T07:58:03.769Z,100211.97
2022-10-02T08:00:36.569Z,100201.56
2022-10-02T08:03:24.116Z,100202.97
2022-10-02T08:05:54.667Z,100208.81
2022-10-02T08:08:53.250Z,100208.97
2022-10-02T08:11:31.133Z,100215.72
2022-10-02T08:14:07.498Z,100230.47
2022-10-02T08:16:53.594Z,100228.13
2022-10-02T08:19:36.703Z,100240.38
2022-10-02T08:22:26.049Z,100247.66
2022-10-02T08:25:05.520Z,100251.78
2022-10-02T08:27:53.993Z,100250.53
2022-10-02T08:30:21.020Z,100257.13
2022-10-02T08:32:48.065Z,100262.38
2022-10-02T08:35:19.734Z,100267.63
2022-10-02T08:38:10.267Z,100273.63
2022-10-02T08:41:21.547Z,100279.22
2022-10-02T08:44:07.019Z,100278.44
2022-10-02T08:47:29.394Z,100266.13
2022-10-02T08:50:02.013Z,100279.94
2022-10-02T08:53:08.880Z,100278.44
2022-10-02T08:55:53.551Z,100286.25
2022-10-02T08:58:53.553Z,100284.41
2022-10-02T09:01:43.476Z,100285.03
2022-10-02T09:04:59.975Z,100279.38
2022-10-02T09:08:08.496Z,100289.59
2022-10-02T09:11:33.051Z,100289.69
2022-10-02T09:14:51.532Z,100298.06
2022-10-02T09:17:50.531Z,100288.78
2022-10-02T09:20:46.991Z,100299.88
2022-10-02T09:23:41.101Z,100293.53
2022-10-02T09:29:57.168Z,100301.47
2022-10-02T09:32:34.788Z,100305.09
2022-10-02T09:35:49.791Z,100305.47
2022-10-02T09:38:29.748Z,100321.47
2022-10-02T09:41:22.247Z,100315.72
2022-10-02T09:44:30.456Z,100326.47
2022-10-02T09:47:45.358Z,100335.06
2022-10-02T09:50:32.265Z,100326.63
2022-10-02T09:53:10.795Z,100327.53
2022-10-02T09:56:18.405Z,100329.22
2022-10-02T09:59:00.443Z,100331.22
2022-10-02T10:02:20.408Z,100337.00
2022-10-02T10:05:43.241Z,100347.25
2022-10-02T10:08:12.052Z,100347.03
2022-10-02T10:11:26.450Z,100354.50
2022-10-02T10:14:49.902Z,100354.50
2022-10-02T10:17:48.420Z,100362.31
2022-10-02T10:20:51.941Z,100374.22
2022-10-02T10:23:51.274Z,100376.00
2022-10-02T10:26:55.945Z,100373.66
2022-10-02T10:29:54.377Z,100387.41
2022-10-02T10:33:12.559Z,100386.53
2022-10-02T10:35:48.474Z,100383.97
2022-10-02T10:38:43.974Z,100384.53
2022-10-02T10:41:57.701Z,100380.16
2022-10-02T10:45:15.409Z,100391.88
2022-10-02T10:48:13.707Z,100390.81
2022-10-02T10:55:06.373Z,100395.28
2022-10-02T10:58:27.594Z,100409.97
2022-10-02T11:01:00.596Z,100412.53
2022-10-02T11:04:15.470Z,100417.09
2022-10-02T11:07:01.077Z,100422.28
2022-10-02T11:09:56.014Z,100428.38
2022-10-02T11:13:47.154Z,100435.72
2022-10-02T11:17:06.359Z,100437.31
2022-10-02T11:23:49.666Z,100449.94
2022-10-02T11:32:00.223Z,100441.94
2022-10-02T11:38:42.280Z,100449.59
2022-10-02T11:41:28.866Z,100462.97
2022-10-02T11:44:59.580Z,100469.84
2022-10-02T11:51:35.031Z,100478.34
2022-10-02T11:55:06.510Z,100479.19
2022-10-02T12:05:37.932Z,100497.63
2022-10-02T12:08:41.374Z,100504.06
2022-10-02T12:11:20.681Z,100503.84
2022-10-02T12:14:01.301Z,100496.13
2022-10-02T12:16:48.842Z,100493.69
2022-10-02T12:19:24.334Z,100501.09
2022-10-02T12:22:41.157Z,100508.28
2022-10-02T12:25:47.615Z,100518.50
2022-10-02T12:28:39.139Z,100516.34
2022-10-02T12:31:38.274Z,100523.81
2022-10-02T12:34:28.756Z,100514.22
2022-10-02T12:37:19.584Z,100520.09
2022-10-02T12:40:19.633Z,100536.38
2022-10-02T12:43:07.592Z,100544.41
2022-10-02T12:46:51.274Z,100533.25
2022-10-02T12:49:46.077Z,100540.44
2022-10-02T12:53:06.584Z,100545.75
2022-10-02T12:56:10.766Z,100554.31
2022-10-02T12:59:09.273Z,100551.31
2022-10-02T13:02:49.131Z,100554.06
2022-10-02T13:05:26.609Z,100554.34
2022-10-02T13:08:18.247Z,100554.41
2022-10-02T13:11:00.883Z,100562.72
2022-10-02T13:13:48.433Z,100569.88
2022-10-02T13:17:12.546Z,100572.63
2022-10-02T13:19:43.548Z,100574.78
2022-10-02T13:22:48.518Z,100581.41
2022-10-02T13:26:02.044Z,100584.03
2022-10-02T13:28:50.983Z,100573.09
2022-10-02T13:32:07.679Z,100571.50
2022-10-02T13:35:17.544Z,100591.19
2022-10-02T13:38:13.790Z,100589.88
2022-10-02T13:41:15.947Z,100587.09
2022-10-02T13:43:50.116Z,100591.28
2022-10-02T13:46:45.392Z,100589.94
2022-10-02T13:49:38.149Z,100602.16
2022-10-02T13:52:34.803Z,100595.81
2022-10-02T13:55:04.891Z,100595.84
2022-10-02T13:58:22.987Z,100601.91
2022-10-02T14:01:08.170Z,100601.59
2022-10-02T14:04:12.165Z,100608.75
2022-10-02T14:06:44.805Z,100600.53
2022-10-02T14:09:23.768Z,100601.09
2022-10-02T14:11:59.485Z,100598.63
2022-10-02T14:14:47.407Z,100600.56
2022-10-02T14:17:26.175Z,100608.25
2022-10-02T14:20:00.956Z,100604.38
2022-10-02T14:22:48.246Z,100593.84
2022-10-02T14:25:33.778Z,100607.72
2022-10-02T14:28:38.405Z,100612.09
2022-10-02T14:31:13.965Z,100605.91
2022-10-02T14:34:27.672Z,100603.91
2022-10-02T14:37:19.153Z,100608.31
2022-10-02T14:39:45.820Z,100601.44
2022-10-02T14:42:47.609Z,100603.44
2022-10-02T14:45:26.770Z,100612.41
2022-10-02T14:48:15.353Z,100611.34
2022-10-02T14:51:00.691Z,100610.56
2022-10-02T14:53:29.948Z,100617.78
2022-10-02T14:56:19.655Z,100615.53
2022-10-02T14:59:10.017Z,100618.84
2022-10-02T15:01:51.382Z,100622.75
2022-10-02T15:04:40.003Z,100626.03
2022-10-02T15:10:33.411Z,100635.56
2022-10-02T15:16:44.116Z,100647.50
2022-10-02T15:19:25.370Z,100645.00
2022-10-02T15:22:19.547Z,100649.72
2022-10-02T15:24:55.128Z,100644.75
2022-10-02T15:27:28.692Z,100655.56
2022-10-02T15:30:24.530Z,100653.31
2022-10-02T15:32:57.407Z,100657.38
2022-10-02T15:35:45.904Z,100659.03
2022-10-02T15:38:56.368Z,100653.72
2022-10-02T15:41:47.789Z,100655.66
2022-10-02T15:44:34.536Z,100656.41
2022-10-02T15:47:44.161Z,100654.47
2022-10-02T15:50:27.292Z,100661.56
2022-10-02T15:53:00.212Z,100663.66
2022-10-02T15:55:53.034Z,100669.69
2022-10-02T15:58:47.472Z,100671.00
2022-10-02T16:01:44.492Z,100681.09
2022-10-02T16:04:14.466Z,100686.47
2022-10-02T16:07:11.097Z,100690.03
2022-10-02T16:13:26.618Z,100691.47
2022-10-02T16:16:00.865Z,100689.28
2022-10-02T16:22:17.669Z,100699.31
2022-10-02T16:25:11.630Z,100695.63
2022-10-02T16:28:12.135Z,100707.00
2022-10-02T16:31:17.577Z,100716.44
2022-10-02T16:39:53.874Z,100712.03
2022-10-02T16:42:41.532Z,100712.34
2022-10-02T16:46:11.207Z,100702.78
2022-10-02T16:49:02.682Z,100713.47
2022-10-02T16:52:10.891Z,100717.44
2022-10-02T16:54:43.637Z,100714.53
2022-10-02T16:57:27.426Z,100714.16
2022-10-02T17:00:23.174Z,100722.88
2022-10-02T17:02:56.529Z,100733.28
2022-10-02T17:05:51.884Z,100738.91
2022-10-02T17:08:33.619Z,100758.84
2022-10-02T17:11:04.816Z,100767.63
2022-10-02T17:13:47.094Z,100761.47
2022-10-02T17:16:21.955Z,100760.31
2022-10-02T17:19:19.543Z,100776.19
2022-10-02T17:21:53.707Z,100767.31
2022-10-02T17:24:31.897Z,100763.13
2022-10-02T17:30:35.505Z,100753.06
2022-10-02T17:33:24.387Z,100758.06
2022-10-02T17:36:32.909Z,100769.91
2022-10-02T17:39:46.480Z,100768.31
2022-10-02T17:42:53.189Z,100779.09
2022-10-02T17:45:36.821Z,100789.25
2022-10-02T17:48:27.012Z,100792.97
2022-10-02T17:51:48.145Z,100803.00
2022-10-02T17:55:14.501Z,100806.00
2022-10-02T17:58:35.637Z,100816.63
2022-10-02T18:01:22.162Z,100818.16
2022-10-02T18:04:24.385Z,100821.91
2022-10-02T18:07:38.058Z,100835.16
2022-10-02T18:11:11.249Z,100835.16
2022-10-02T18:14:08.481Z,100849.19
2022-10-02T18:17:27.045Z,100844.97
2022-10-02T18:20:34.410Z,100836.13
2022-10-02T18:23:34.877Z,100843.97
2022-10-02T18:26:48.270Z,100852.34
2022-10-02T18:29:31.521Z,100851.16
2022-10-02T18:32:17.109Z,100865.34
2022-10-02T18:35:09.007Z,100871.19
2022-10-02T18:38:23.327Z,100872.84
2022-10-02T18:41:13.429Z,100879.34
2022-10-02T18:44:07.816Z,100874.66
2022-10-02T18:46:39.620Z,100875.66
2022-10-02T18:49:14.972Z,100883.84
2022-10-02T18:52:19.231Z,100883.31
2022-10-02T18:55:07.834Z,100877.75
2022-10-02T18:57:51.760Z,100880.03
2022-10-02T19:00:22.217Z,100885.84
2022-10-02T19:03:29.803Z,100897.53
2022-10-02T19:06:26.604Z,100902.72
2022-10-02T19:09:23.011Z,100920.34
2022-10-02T19:11:58.313Z,100920.59
2022-10-02T19:14:33.318Z,100930.78
2022-10-02T19:17:01.667Z,100934.84
2022-10-02T19:19:34.790Z,100934.47
2022-10-02T19:22:14.287Z,100942.75
2022-10-02T19:24:43.948Z,100941.31
2022-10-02T19:27:35.396Z,100951.28
2022-10-02T19:30:23.727Z,100945.63
2022-10-02T19:32:53.778Z,100947.78
2022-10-02T19:35:33.731Z,100948.84
2022-10-02T19:38:30.823Z,100945.53
2022-10-02T19:41:08.832Z,100942.38
2022-10-02T19:43:46.405Z,100940.50
2022-10-02T19:46:14.586Z,100942.00
2022-10-02T19:48:41.946Z,100946.41
2022-10-02T19:51:21.209Z,100954.69
2022-10-02T19:53:58.357Z,100953.66
2022-10-02T19:56:43.204Z,100952.41
2022-10-02T19:59:31.747Z,100953.66
2022-10-02T20:02:04.179Z,100949.72
2022-10-02T20:04:34.344Z,100944.25
2022-10-02T20:07:05.897Z,100954.16
2022-10-02T20:09:45.858Z,100951.22
2022-10-02T20:12:14.968Z,100960.50
2022-10-02T20:14:51.548Z,100956.28
2022-10-02T20:17:19.202Z,100956.72
2022-10-02T20:19:57.795Z,100958.19
2022-10-02T20:22:34.110Z,100960.97
2022-10-02T20:25:31.462Z,100966.00
2022-10-02T20:28:23.933Z,100973.38
2022-10-02T20:31:12.609Z,100976.97
2022-10-02T20:33:54.701Z,100988.31
2022-10-02T20:36:29.075Z,100995.50
2022-10-02T20:39:09.813Z,101001.56
2022-10-02T20:42:03.651Z,101005.31
2022-10-02T20:44:36.497Z,101002.16
2022-10-02T20:47:22.637Z,100998.59
2022-10-02T20:50:08.079Z,101000.50
2022-10-02T20:52:53.205Z,101000.50
2022-10-02T20:55:31.738Z,101000.91
2022-10-02T20:58:13.440Z,101003.00
2022-10-02T21:00:55.526Z,100997.75
2022-10-02T21:03:25.174Z,100992.47
2022-10-02T21:06:11.078Z,101002.13
2022-10-02T21:09:08.348Z,100998.75
2022-10-02T21:11:54.688Z,101005.06
2022-10-02T21:14:33.319Z,101002.53
2022-10-02T21:17:28.274Z,101003.81
2022-10-02T21:20:00.807Z,101009.84
2022-10-02T21:22:39.329Z,101012.75
2022-10-02T21:25:24.952Z,101011.25
2022-10-02T21:28:23.373Z,101003.72
2022-10-02T21:31:05.073Z,101009.63
2022-10-02T21:33:41.511Z,101009.63
2022-10-02T21:36:21.360Z,101007.69
2022-10-02T21:39:27.072Z,101009.13
2022-10-02T21:42:21.041Z,101000.28
2022-10-02T21:45:23.776Z,101001.56
2022-10-02T21:48:13.303Z,100997.31
2022-10-02T21:51:17.408Z,101002.16
2022-10-02T21:54:20.865Z,100996.47
2022-10-02T21:56:52.668Z,101006.94
2022-10-02T21:59:48.038Z,100996.88
2022-10-02T22:02:46.728Z,100998.13
2022-10-02T22:05:42.665Z,101007.31
2022-10-02T22:08:35.390Z,101014.63
2022-10-02T22:11:09.702Z,101013.75
2022-10-02T22:13:43.989Z,101019.84
2022-10-02T22:16:39.478Z,101026.13
2022-10-02T22:19:31.033Z,101018.09
2022-10-02T22:22:43.569Z,101022.72
2022-10-02T22:25:35.990Z,101024.81
2022-10-02T22:28:25.530Z,101020.97
2022-10-02T22:30:56.351Z,101027.69
2022-10-02T22:33:44.793Z,101024.94
2022-10-02T22:36:30.617Z,101032.22
2022-10-02T22:39:19.485Z,101008.25
2022-10-02T22:42:13.157Z,101012.69
2022-10-02T22:45:02.791Z,101009.09
2022-10-02T22:47:46.909Z,101012.19
2022-10-02T22:50:27.365Z,101015.81
2022-10-02T22:53:09.187Z,101011.16
2022-10-02T22:55:52.800Z,101013.63
2022-10-02T22:58:31.365Z,101005.09
2022-10-02T23:01:18.356Z,101012.41
2022-10-02T23:03:51.637Z,101018.69
2022-10-02T23:06:30.525Z,101017.84
2022-10-02T23:09:27.115Z,101018.25
2022-10-02T23:12:05.996Z,101010.63
2022-10-02T23:15:08.025Z,101003.91
2022-10-02T23:17:43.331Z,101011.84
2022-10-02T23:20:19.832Z,101020.16
2022-10-02T23:23:25.074Z,101017.28
2022-10-02T23:26:17.231Z,101016.53
2022-10-02T23:29:03.298Z,101019.69
2022-10-02T23:31:36.192Z,101008.88
2022-10-02T23:34:21.412Z,101014.56
2022-10-02T23:37:15.528Z,101030.56
2022-10-02T23:40:04.036Z,101026.28
2022-10-02T23:42:39.402Z,101020.03
2022-10-02T23:45:31.356Z,101015.38
2022-10-02T23:48:03.432Z,101017.97
2022-10-02T23:50:53.084Z,101021.31
2022-10-02T23:53:27.470Z,101022.13
2022-10-02T23:56:00.423Z,101025.09
2022-10-02T23:58:50.107Z,101033.06
